Airfield :
LOGIN :

Register | Disclaimer

   EN    FR    IT 

 










Legend :    VFR   Marginal VFR   IFR   Intensive IFR   Very Intensive IFR
Visi :
Ceiling :
>= 8 km
>= 3000ft
5 to 8 km
1000 to 3000 ft
1500m to 5 km
500 to 1000 ft
800 to 1500m
200 to 500 ft
< 800m
< 200 ft
Symbols :   Thunderstorms  Fog  Heavy snow  Heavy precipitations  Wind > 20 kt
SIGMETs :     Misc.  Thunderstorms  Icing  Turbulence  Mountain Waves  Volcanic Ashes






- Airport Elevation : 0 ft


ENSL - Sleipner A Platform

CURRENT METAR :
  • 291220Z AUTO 13037KT 2900NDV RA BR OVC005/// 07/07 Q0968 W05/S6

EXPIRED METARs :
  • 291150Z AUTO 12044KT 1600NDV RA OVC005/// 06/06 Q0968 W05/S6
  • 291120Z AUTO 12051KT 1700NDV -RA BR OVC006/// 06/06 Q0968 W04/S6
  • 291050Z AUTO 12053KT 1500NDV -RA BR OVC006/// 06/06 Q0969 RERA W04/S5
  • 291020Z AUTO 11054KT 1800NDV -RA BR OVC007/// 06/06 Q0969 RERA W04/S5
  • 290950Z AUTO 11053KT 1700NDV -RA BR OVC006/// 06/06 Q0970 RERA W04/S5

Expired Forecast.



MET'MAP, your aeronautical weather chart ! - Copyright ORBIFLY December 2007 - Disclaimer

ORBIFLY MET'MAP TEAM :

Programming & Development : Alexandra Zaïnal
Concept & original design : Baudouin d'Aumeries
Assistance for programming : Marc-Olivier Méhu
Technical & hardware support : Manuel Goepfert

Contact : metmap@orbifly.com




SOURCES & CREDITS :

   NOAA